Ambler, Alaska
Current Conditions -  °F | °C
As of 1:56 AM on Saturday 25 Oct 2014 (Local Time) from PAFM Reporting Station
Overcast Overcast  
Wind Chill: -5°   Ceiling: 600
Heat Index: -5°   Visibility: 0.5mi
Dew Point: -7°   Wind: 3mph
Humidity: 86%   Direction: 60°ENE
Pressure: 29.87"   Gusts: NA
Location:  67.09°N, 157.85°W
Report Text: PAFM 250956Z AUTO 06003KT 1/2SM OVC006 M05/M07 A2987 RMK AO1 P0004
Loading
Personal Weather Stations






























Interactive Weather Map New forecast layout! Learn more

10-Day Weather Forecast

Advertisements
Track Severe Weather on mobile